createdAt,value
2023-02-02T00:01:10.521Z,-0.10
2023-02-02T00:03:38.371Z,0.00
2023-02-02T00:06:06.286Z,0.00
2023-02-02T00:08:36.157Z,0.00
2023-02-02T00:11:03.508Z,0.00
2023-02-02T00:13:31.256Z,-0.10
2023-02-02T00:15:58.422Z,-0.10
2023-02-02T00:18:25.786Z,-0.10
2023-02-02T00:20:53.844Z,-0.10
2023-02-02T00:23:21.421Z,-0.10
2023-02-02T00:25:50.561Z,-0.10
2023-02-02T00:28:17.723Z,-0.10
2023-02-02T00:30:45.673Z,-0.10
2023-02-02T00:33:12.997Z,0.00
2023-02-02T00:35:41.375Z,0.00
2023-02-02T00:38:08.516Z,0.00
2023-02-02T00:40:35.821Z,0.00
2023-02-02T00:43:03.079Z,0.00
2023-02-02T00:45:31.250Z,-0.10
2023-02-02T00:47:58.400Z,-0.20
2023-02-02T00:50:25.580Z,-0.20
2023-02-02T00:52:53.006Z,-0.20
2023-02-02T00:55:20.706Z,-0.30
2023-02-02T00:57:48.500Z,-0.20
2023-02-02T01:00:19.426Z,-0.30
2023-02-02T01:02:47.445Z,-0.30
2023-02-02T01:05:14.512Z,-0.30
2023-02-02T01:07:42.383Z,-0.30
2023-02-02T01:10:14.063Z,-0.30
2023-02-02T01:12:42.972Z,-0.30
2023-02-02T01:15:10.948Z,-0.20
2023-02-02T01:17:38.751Z,-0.20
2023-02-02T01:20:07.981Z,-0.10
2023-02-02T01:22:35.429Z,-0.10
2023-02-02T01:25:02.835Z,-0.10
2023-02-02T01:27:29.870Z,-0.10
2023-02-02T01:29:57.443Z,-0.10
2023-02-02T01:32:24.580Z,-0.20
2023-02-02T01:34:52.031Z,-0.20
2023-02-02T01:37:19.032Z,-0.30
2023-02-02T01:39:46.115Z,-0.30
2023-02-02T01:42:15.622Z,-0.30
2023-02-02T01:45:03.654Z,-0.30
2023-02-02T01:47:37.445Z,-0.40
2023-02-02T01:50:06.376Z,-0.30
2023-02-02T01:52:35.751Z,-0.20
2023-02-02T01:55:09.315Z,-0.20
2023-02-02T01:57:47.406Z,-0.20
2023-02-02T02:00:17.467Z,0.00
2023-02-02T02:02:48.668Z,0.00
2023-02-02T02:05:26.762Z,0.10
2023-02-02T02:08:01.391Z,0.10
2023-02-02T02:10:28.540Z,0.10
2023-02-02T02:12:56.387Z,0.00
2023-02-02T02:15:44.730Z,0.00
2023-02-02T02:18:33.142Z,0.10
2023-02-02T02:21:44.576Z,0.10
2023-02-02T02:24:36.164Z,0.20
2023-02-02T02:27:18.325Z,0.30
2023-02-02T02:29:53.508Z,0.30
2023-02-02T02:32:50.612Z,0.40
2023-02-02T02:35:26.437Z,0.40
2023-02-02T02:38:04.491Z,0.30
2023-02-02T02:40:31.813Z,0.30
2023-02-02T02:43:05.161Z,0.40
2023-02-02T02:45:33.508Z,0.40
2023-02-02T02:48:02.989Z,0.40
2023-02-02T02:50:30.975Z,0.40
2023-02-02T02:53:11.952Z,0.40
2023-02-02T02:55:47.932Z,0.40
2023-02-02T02:58:24.801Z,0.40
2023-02-02T03:01:01.864Z,0.30
2023-02-02T03:03:37.616Z,0.40
2023-02-02T03:06:08.178Z,0.40
2023-02-02T03:08:40.992Z,0.30
2023-02-02T03:11:11.448Z,0.40
2023-02-02T03:13:40.644Z,0.50
2023-02-02T03:16:08.727Z,0.50
2023-02-02T03:18:36.107Z,0.50
2023-02-02T03:21:03.508Z,0.50
2023-02-02T03:23:30.998Z,0.50
2023-02-02T03:25:59.816Z,0.50
2023-02-02T03:28:28.640Z,0.50
2023-02-02T03:30:59.308Z,0.50
2023-02-02T03:33:27.157Z,0.50
2023-02-02T03:35:54.359Z,0.40
2023-02-02T03:38:21.601Z,0.40
2023-02-02T03:40:49.136Z,0.30
2023-02-02T03:43:22.129Z,0.30
2023-02-02T03:45:55.454Z,0.20
2023-02-02T03:48:22.906Z,0.20
2023-02-02T03:50:50.099Z,0.20
2023-02-02T03:53:17.979Z,0.20
2023-02-02T03:55:45.147Z,0.10
2023-02-02T03:58:12.491Z,0.10
2023-02-02T04:00:39.632Z,0.10
2023-02-02T04:03:07.097Z,0.10
2023-02-02T04:05:34.530Z,0.10
2023-02-02T04:08:01.749Z,0.00
2023-02-02T04:10:29.432Z,0.00
2023-02-02T04:12:56.755Z,-0.10
2023-02-02T04:15:24.327Z,0.00
2023-02-02T04:17:51.773Z,0.00
2023-02-02T04:20:18.951Z,0.00
2023-02-02T04:22:46.078Z,0.00
2023-02-02T04:25:13.440Z,-0.10
2023-02-02T04:27:40.588Z,-0.10
2023-02-02T04:30:09.094Z,0.00
2023-02-02T04:32:36.250Z,-0.10
2023-02-02T04:35:04.168Z,-0.20
2023-02-02T04:37:32.358Z,-0.20
2023-02-02T04:39:59.480Z,-0.20
2023-02-02T04:42:26.792Z,-0.30
2023-02-02T04:44:54.160Z,-0.30
2023-02-02T04:47:21.351Z,-0.30
2023-02-02T04:49:48.760Z,-0.30
2023-02-02T04:52:15.852Z,0.00
2023-02-02T04:54:43.018Z,0.10
2023-02-02T04:57:10.127Z,0.20
2023-02-02T04:59:37.228Z,0.20
2023-02-02T05:02:04.348Z,0.30
2023-02-02T05:04:31.646Z,0.30
2023-02-02T05:06:59.104Z,0.30
2023-02-02T05:09:26.276Z,0.40
2023-02-02T05:11:53.736Z,0.40
2023-02-02T05:14:21.054Z,0.50
2023-02-02T05:16:50.057Z,0.50
2023-02-02T05:19:17.667Z,0.60
2023-02-02T05:21:45.365Z,0.70
2023-02-02T05:24:13.478Z,0.80
2023-02-02T05:26:40.658Z,0.80
2023-02-02T05:29:09.446Z,1.00
2023-02-02T05:31:36.770Z,1.00
2023-02-02T05:34:04.150Z,1.00
2023-02-02T05:36:31.392Z,1.00
2023-02-02T05:38:59.019Z,1.00
2023-02-02T05:41:26.357Z,1.00
2023-02-02T05:43:53.693Z,1.10
2023-02-02T05:46:20.852Z,1.10
2023-02-02T05:48:48.109Z,1.10
2023-02-02T05:51:20.055Z,1.10
2023-02-02T05:53:47.878Z,1.20
2023-02-02T05:56:15.973Z,1.20
2023-02-02T05:58:44.657Z,1.20
2023-02-02T06:01:11.982Z,1.30
2023-02-02T06:03:39.436Z,1.30
2023-02-02T06:06:07.242Z,1.20
2023-02-02T06:08:35.367Z,1.20
2023-02-02T06:11:19.207Z,1.30
2023-02-02T06:13:46.612Z,1.30
2023-02-02T06:16:14.185Z,1.30
2023-02-02T06:18:41.544Z,1.30
2023-02-02T06:21:10.114Z,1.40
2023-02-02T06:23:38.566Z,1.40
2023-02-02T06:26:08.598Z,1.30
2023-02-02T06:28:35.839Z,1.30
2023-02-02T06:31:09.109Z,1.30
2023-02-02T06:33:37.198Z,1.20
2023-02-02T06:36:06.652Z,1.30
2023-02-02T06:38:34.644Z,1.20
2023-02-02T06:41:02.634Z,1.20
2023-02-02T06:43:30.869Z,1.20
2023-02-02T06:45:58.830Z,1.20
2023-02-02T06:48:26.846Z,1.30
2023-02-02T06:50:54.335Z,1.30
2023-02-02T06:53:23.351Z,1.30
2023-02-02T06:55:55.478Z,1.30
2023-02-02T06:58:23.204Z,1.40
2023-02-02T07:00:50.318Z,1.50
2023-02-02T07:03:18.027Z,1.60
2023-02-02T07:05:45.294Z,1.60
2023-02-02T07:08:12.525Z,1.70
2023-02-02T07:11:11.232Z,1.70
2023-02-02T07:13:27.481Z,1.70
2023-02-02T07:15:54.819Z,1.70
2023-02-02T07:18:22.608Z,1.70
2023-02-02T07:20:49.970Z,1.70
2023-02-02T07:23:17.293Z,1.70
2023-02-02T07:25:44.923Z,1.70
2023-02-02T07:28:12.224Z,1.70
2023-02-02T07:30:39.629Z,1.70
2023-02-02T07:33:06.693Z,1.70
2023-02-02T07:35:33.887Z,1.80
2023-02-02T07:38:00.944Z,1.70
2023-02-02T07:40:28.095Z,1.70
2023-02-02T07:42:55.679Z,1.70
2023-02-02T07:45:26.612Z,1.70
2023-02-02T07:47:58.596Z,1.70
2023-02-02T07:50:27.076Z,1.60
2023-02-02T07:52:55.520Z,1.60
2023-02-02T07:55:23.003Z,1.70
2023-02-02T07:57:52.848Z,1.70
2023-02-02T08:00:20.966Z,1.80
2023-02-02T08:02:50.101Z,1.90
2023-02-02T08:05:17.504Z,1.90
2023-02-02T08:07:44.955Z,2.00
2023-02-02T08:10:12.684Z,2.00
2023-02-02T08:12:40.138Z,2.20
2023-02-02T08:15:08.554Z,2.40
2023-02-02T08:17:37.472Z,2.50
2023-02-02T08:20:05.275Z,2.60
2023-02-02T08:22:32.496Z,2.60
2023-02-02T08:24:59.700Z,2.60
2023-02-02T08:27:26.875Z,2.70
2023-02-02T08:29:54.672Z,2.60
2023-02-02T08:32:22.010Z,2.70
2023-02-02T08:34:51.873Z,2.80
2023-02-02T08:37:19.360Z,2.90
2023-02-02T08:39:46.532Z,2.90
2023-02-02T08:42:13.853Z,3.00
2023-02-02T08:45:01.007Z,3.00
2023-02-02T08:47:30.699Z,3.00
2023-02-02T08:49:58.070Z,3.00
2023-02-02T08:52:25.919Z,3.00
2023-02-02T08:54:53.197Z,3.00
2023-02-02T08:57:20.809Z,3.10
2023-02-02T08:59:47.954Z,3.10
2023-02-02T09:02:16.846Z,3.10
2023-02-02T09:04:45.639Z,3.00
2023-02-02T09:07:13.332Z,3.10
2023-02-02T09:09:40.747Z,3.10
2023-02-02T09:12:08.166Z,3.10
2023-02-02T09:14:35.598Z,3.20
2023-02-02T09:17:02.949Z,3.20
2023-02-02T09:19:30.756Z,3.20
2023-02-02T09:21:58.118Z,3.30
2023-02-02T09:24:25.384Z,3.30
2023-02-02T09:26:52.627Z,3.30
2023-02-02T09:29:19.848Z,3.10
2023-02-02T09:31:47.280Z,3.10
2023-02-02T09:34:15.786Z,3.10
2023-02-02T09:36:44.148Z,3.20
2023-02-02T09:39:13.079Z,3.20
2023-02-02T09:41:40.922Z,3.30
2023-02-02T09:44:34.841Z,3.30
2023-02-02T09:47:24.153Z,3.40
2023-02-02T09:50:23.014Z,3.50
2023-02-02T09:52:59.090Z,3.60
2023-02-02T09:55:44.830Z,3.80
2023-02-02T09:58:34.286Z,3.90
2023-02-02T10:01:25.168Z,4.00
2023-02-02T10:04:13.727Z,4.10
2023-02-02T10:06:45.568Z,4.20
2023-02-02T10:09:43.856Z,4.30
2023-02-02T10:12:19.580Z,4.40
2023-02-02T10:15:02.481Z,4.40
2023-02-02T10:17:49.740Z,4.50
2023-02-02T10:20:32.027Z,4.60
2023-02-02T10:23:11.684Z,4.60
2023-02-02T10:25:46.626Z,4.70
2023-02-02T10:28:19.722Z,4.70
2023-02-02T10:30:56.842Z,4.60
2023-02-02T10:33:46.916Z,4.60
2023-02-02T10:36:28.947Z,4.60
2023-02-02T10:39:10.489Z,4.60
2023-02-02T10:41:43.976Z,4.70
2023-02-02T10:44:22.014Z,4.80
2023-02-02T10:46:54.624Z,4.70
2023-02-02T10:49:39.987Z,4.70
2023-02-02T10:52:18.669Z,4.70
2023-02-02T10:55:04.578Z,4.70
2023-02-02T10:57:39.497Z,4.80
2023-02-02T11:00:28.393Z,4.80
2023-02-02T11:02:56.326Z,4.80
2023-02-02T11:05:45.924Z,4.80
2023-02-02T11:08:16.558Z,4.90
2023-02-02T11:10:47.080Z,4.80
2023-02-02T11:13:21.411Z,4.90
2023-02-02T11:15:48.767Z,4.90
2023-02-02T11:18:31.671Z,5.00
2023-02-02T11:20:59.106Z,5.20
2023-02-02T11:23:28.665Z,5.20
2023-02-02T11:26:05.524Z,5.40
2023-02-02T11:28:35.944Z,5.50
2023-02-02T11:31:03.361Z,5.50
2023-02-02T11:33:33.918Z,5.60
2023-02-02T11:36:02.147Z,5.80
2023-02-02T11:38:30.355Z,5.90
2023-02-02T11:41:04.049Z,6.00
2023-02-02T11:43:52.343Z,6.10
2023-02-02T11:46:22.385Z,6.10
2023-02-02T11:49:03.081Z,6.20
2023-02-02T11:51:31.670Z,6.30
2023-02-02T11:54:23.203Z,6.20
2023-02-02T11:56:54.005Z,6.20
2023-02-02T11:59:31.154Z,6.30
2023-02-02T12:02:18.196Z,6.30
2023-02-02T12:04:48.786Z,6.30
2023-02-02T12:07:33.558Z,6.30
2023-02-02T12:10:07.099Z,6.30
2023-02-02T12:12:54.173Z,6.30
2023-02-02T12:15:26.464Z,6.30
2023-02-02T12:18:06.483Z,6.40
2023-02-02T12:20:51.931Z,6.40
2023-02-02T12:23:36.529Z,6.30
2023-02-02T12:26:08.515Z,6.30
2023-02-02T12:28:50.056Z,6.30
2023-02-02T12:31:49.845Z,6.20
2023-02-02T12:34:27.348Z,6.40
2023-02-02T12:37:03.435Z,6.30
2023-02-02T12:39:41.128Z,6.30
2023-02-02T12:42:28.472Z,6.30
2023-02-02T12:45:19.488Z,6.20
2023-02-02T12:47:56.702Z,6.20
2023-02-02T12:50:30.604Z,6.20
2023-02-02T12:53:29.207Z,6.10
2023-02-02T12:56:01.108Z,6.10
2023-02-02T12:58:37.084Z,6.20
2023-02-02T13:01:18.188Z,6.20
2023-02-02T13:04:01.619Z,6.10
2023-02-02T13:06:29.208Z,6.20
2023-02-02T13:09:03.306Z,6.20
2023-02-02T13:11:39.758Z,6.10
2023-02-02T13:14:13.160Z,6.10
2023-02-02T13:16:48.539Z,6.10
2023-02-02T13:19:29.445Z,6.00
2023-02-02T13:22:00.918Z,6.00
2023-02-02T13:24:31.487Z,5.90
2023-02-02T13:27:02.146Z,5.90
2023-02-02T13:29:34.261Z,5.80
2023-02-02T13:32:23.906Z,5.80
2023-02-02T13:34:56.599Z,5.80
2023-02-02T13:37:37.430Z,5.80
2023-02-02T13:40:28.249Z,5.70
2023-02-02T13:43:02.742Z,5.60
2023-02-02T13:45:53.467Z,5.60
2023-02-02T13:48:36.840Z,5.50
2023-02-02T13:51:31.528Z,5.50
2023-02-02T13:54:18.614Z,5.30
2023-02-02T13:56:53.508Z,5.30
2023-02-02T13:59:23.952Z,5.30
2023-02-02T14:01:52.520Z,5.30
2023-02-02T14:04:25.771Z,5.30
2023-02-02T14:06:59.080Z,5.20
2023-02-02T14:09:30.058Z,5.30
2023-02-02T14:12:02.109Z,5.20
2023-02-02T14:14:35.305Z,5.20
2023-02-02T14:17:07.314Z,5.20
2023-02-02T14:19:35.645Z,5.10
2023-02-02T14:22:09.870Z,5.10
2023-02-02T14:24:37.518Z,5.00
2023-02-02T14:27:08.072Z,5.00
2023-02-02T14:29:36.912Z,5.00
2023-02-02T14:32:07.343Z,4.90
2023-02-02T14:34:39.736Z,4.90
2023-02-02T14:37:27.260Z,4.90
2023-02-02T14:40:34.317Z,4.90
2023-02-02T14:43:47.620Z,4.80
2023-02-02T14:46:15.006Z,4.80
2023-02-02T14:49:02.204Z,4.70
2023-02-02T14:51:32.246Z,4.70
2023-02-02T14:54:02.898Z,4.60
2023-02-02T14:56:50.228Z,4.60
2023-02-02T14:59:31.355Z,4.60
2023-02-02T15:02:15.244Z,4.60
2023-02-02T15:04:43.208Z,4.50
2023-02-02T15:07:26.465Z,4.60
2023-02-02T15:09:56.776Z,4.50
2023-02-02T15:12:44.795Z,4.50
2023-02-02T15:15:22.040Z,4.50
2023-02-02T15:18:13.546Z,4.50
2023-02-02T15:20:50.274Z,4.40
2023-02-02T15:23:42.721Z,4.50
2023-02-02T15:26:13.426Z,4.40
2023-02-02T15:28:42.047Z,4.40
2023-02-02T15:31:28.738Z,4.40
2023-02-02T15:34:01.105Z,4.30
2023-02-02T15:36:33.998Z,4.30
2023-02-02T15:39:10.960Z,4.30
2023-02-02T15:41:44.301Z,4.20
2023-02-02T15:44:20.560Z,4.20
2023-02-02T15:46:49.114Z,4.20
2023-02-02T15:49:33.317Z,4.20
2023-02-02T15:52:11.262Z,4.20
2023-02-02T15:54:38.791Z,4.20
2023-02-02T15:57:30.986Z,4.20
2023-02-02T15:59:58.393Z,4.10
2023-02-02T16:02:41.373Z,4.10
2023-02-02T16:05:43.262Z,4.10
2023-02-02T16:08:19.427Z,4.10
2023-02-02T16:10:49.819Z,4.10
2023-02-02T16:13:29.973Z,4.10
2023-02-02T16:15:59.827Z,4.00
2023-02-02T16:18:27.295Z,4.00
2023-02-02T16:20:55.964Z,4.00
2023-02-02T16:23:32.838Z,4.00
2023-02-02T16:26:02.891Z,4.00
2023-02-02T16:28:31.224Z,4.00
2023-02-02T16:31:01.159Z,4.00
2023-02-02T16:33:35.556Z,4.00
2023-02-02T16:36:12.382Z,4.00
2023-02-02T16:38:39.883Z,4.00
2023-02-02T16:41:09.617Z,4.00
2023-02-02T16:43:39.943Z,3.90
2023-02-02T16:46:13.886Z,3.90
2023-02-02T16:48:45.573Z,3.90
2023-02-02T16:51:16.480Z,3.90
2023-02-02T16:53:47.241Z,3.90
2023-02-02T16:56:30.095Z,3.90
2023-02-02T16:59:00.678Z,3.90
2023-02-02T17:01:38.525Z,3.90
2023-02-02T17:04:08.349Z,3.90
2023-02-02T17:06:50.408Z,3.90
2023-02-02T17:09:41.372Z,3.80
2023-02-02T17:12:32.053Z,3.80
2023-02-02T17:15:05.824Z,3.80
2023-02-02T17:17:33.386Z,3.90
2023-02-02T17:20:00.882Z,3.80
2023-02-02T17:22:28.518Z,3.80
2023-02-02T17:24:55.820Z,3.80
2023-02-02T17:27:31.622Z,3.80
2023-02-02T17:30:02.521Z,3.80
2023-02-02T17:32:29.913Z,3.70
2023-02-02T17:34:57.145Z,3.80
2023-02-02T17:37:24.389Z,3.70
2023-02-02T17:39:51.860Z,3.70
2023-02-02T17:42:28.341Z,3.70
2023-02-02T17:44:55.550Z,3.70
2023-02-02T17:47:23.067Z,3.70
2023-02-02T17:49:50.245Z,3.70
2023-02-02T17:52:18.553Z,3.60
2023-02-02T17:54:46.343Z,3.60
2023-02-02T17:57:15.603Z,3.60
2023-02-02T17:59:43.418Z,3.60
2023-02-02T18:02:15.873Z,3.60
2023-02-02T18:04:45.525Z,3.60
2023-02-02T18:07:13.078Z,3.50
2023-02-02T18:09:40.307Z,3.50
2023-02-02T18:12:07.833Z,3.50
2023-02-02T18:14:35.080Z,3.50
2023-02-02T18:17:02.091Z,3.50
2023-02-02T18:19:29.242Z,3.40
2023-02-02T18:21:56.582Z,3.40
2023-02-02T18:24:23.944Z,3.40
2023-02-02T18:26:51.334Z,3.40
2023-02-02T18:29:18.808Z,3.40
2023-02-02T18:31:46.939Z,3.40
2023-02-02T18:34:14.340Z,3.40
2023-02-02T18:36:41.724Z,3.40
2023-02-02T18:39:10.013Z,3.40
2023-02-02T18:41:37.607Z,3.40
2023-02-02T18:44:04.968Z,3.40
2023-02-02T18:46:34.111Z,3.40
2023-02-02T18:49:01.717Z,3.40
2023-02-02T18:51:29.221Z,3.50
2023-02-02T18:54:00.335Z,3.40
2023-02-02T18:56:29.619Z,3.40
2023-02-02T18:58:59.285Z,3.40
2023-02-02T19:01:26.937Z,3.40
2023-02-02T19:03:57.555Z,3.50
2023-02-02T19:06:45.400Z,3.50
2023-02-02T19:09:14.472Z,3.50
2023-02-02T19:11:44.984Z,3.50
2023-02-02T19:14:15.871Z,3.40
2023-02-02T19:16:45.286Z,3.50
2023-02-02T19:19:21.024Z,3.40
2023-02-02T19:21:48.802Z,3.40
2023-02-02T19:24:16.099Z,3.30
2023-02-02T19:26:49.509Z,3.30
2023-02-02T19:29:23.134Z,3.30
2023-02-02T19:32:00.722Z,3.30
2023-02-02T19:34:28.731Z,3.30
2023-02-02T19:36:56.204Z,3.20
2023-02-02T19:39:30.937Z,3.30
2023-02-02T19:42:00.690Z,3.30
2023-02-02T19:44:32.046Z,3.30
2023-02-02T19:47:00.636Z,3.40
2023-02-02T19:49:34.254Z,3.30
2023-02-02T19:52:04.364Z,3.30
2023-02-02T19:54:34.428Z,3.30
2023-02-02T19:57:16.935Z,3.30
2023-02-02T19:59:47.912Z,3.30
2023-02-02T20:02:43.754Z,3.20
2023-02-02T20:05:11.146Z,3.20
2023-02-02T20:07:39.444Z,3.20
2023-02-02T20:10:19.020Z,3.10
2023-02-02T20:12:46.411Z,3.10
2023-02-02T20:15:26.110Z,3.10
2023-02-02T20:17:56.334Z,3.10
2023-02-02T20:20:27.979Z,3.10
2023-02-02T20:22:57.308Z,3.10
2023-02-02T20:25:24.915Z,3.10
2023-02-02T20:27:53.793Z,3.10
2023-02-02T20:30:23.869Z,3.10
2023-02-02T20:32:56.961Z,3.10
2023-02-02T20:35:35.508Z,3.20
2023-02-02T20:38:13.599Z,3.10
2023-02-02T20:40:41.060Z,3.10
2023-02-02T20:43:08.523Z,3.10
2023-02-02T20:45:35.935Z,3.10
2023-02-02T20:48:03.334Z,3.10
2023-02-02T20:50:31.279Z,3.00
2023-02-02T20:53:00.188Z,3.00
2023-02-02T20:55:28.814Z,3.00
2023-02-02T20:57:56.355Z,3.00
2023-02-02T21:00:27.426Z,3.00
2023-02-02T21:02:55.588Z,2.90
2023-02-02T21:05:24.251Z,2.90
2023-02-02T21:07:55.015Z,3.00
2023-02-02T21:10:24.395Z,2.90
2023-02-02T21:12:52.250Z,2.90
2023-02-02T21:15:19.746Z,3.00
2023-02-02T21:17:46.977Z,3.00
2023-02-02T21:20:15.367Z,3.00
2023-02-02T21:22:43.160Z,3.00
2023-02-02T21:25:11.419Z,3.00
2023-02-02T21:27:41.864Z,3.00
2023-02-02T21:30:11.507Z,3.00
2023-02-02T21:32:39.388Z,3.00
2023-02-02T21:35:06.991Z,3.00
2023-02-02T21:37:37.394Z,3.00
2023-02-02T21:40:14.358Z,2.90
2023-02-02T21:42:47.878Z,2.90
2023-02-02T21:45:36.349Z,2.80
2023-02-02T21:48:21.140Z,2.80
2023-02-02T21:50:48.364Z,2.80
2023-02-02T21:53:24.756Z,2.70
2023-02-02T21:56:00.441Z,2.80
2023-02-02T21:58:32.388Z,2.70
2023-02-02T22:01:15.309Z,2.70
2023-02-02T22:03:46.885Z,2.70
2023-02-02T22:06:24.648Z,2.70
2023-02-02T22:08:54.585Z,2.70
2023-02-02T22:11:29.802Z,2.70
2023-02-02T22:14:13.630Z,2.60
2023-02-02T22:16:48.777Z,2.70
2023-02-02T22:19:35.274Z,2.70
2023-02-02T22:22:14.689Z,2.70
2023-02-02T22:24:44.243Z,2.70
2023-02-02T22:27:21.979Z,2.70
2023-02-02T22:29:52.871Z,2.70
2023-02-02T22:32:20.263Z,2.70
2023-02-02T22:34:47.492Z,2.70
2023-02-02T22:37:14.851Z,2.70
2023-02-02T22:39:42.910Z,2.60
2023-02-02T22:42:10.922Z,2.60
2023-02-02T22:44:38.424Z,2.50
2023-02-02T22:47:05.653Z,2.50
2023-02-02T22:49:32.787Z,2.50
2023-02-02T22:52:00.247Z,2.40
2023-02-02T22:54:27.437Z,2.40
2023-02-02T22:56:54.600Z,2.40
2023-02-02T22:59:21.873Z,2.40
2023-02-02T23:01:49.106Z,2.40
2023-02-02T23:04:16.433Z,2.40
2023-02-02T23:06:43.632Z,2.40
2023-02-02T23:09:10.932Z,2.40
2023-02-02T23:11:38.182Z,2.50
2023-02-02T23:14:05.736Z,2.40
2023-02-02T23:16:32.925Z,2.40
2023-02-02T23:19:00.372Z,2.40
2023-02-02T23:21:27.588Z,2.40
2023-02-02T23:23:56.093Z,2.40
2023-02-02T23:26:24.646Z,2.40
2023-02-02T23:28:51.949Z,2.40
2023-02-02T23:31:19.118Z,2.40
2023-02-02T23:33:46.522Z,2.40
2023-02-02T23:36:13.766Z,2.40
2023-02-02T23:38:41.210Z,2.40
2023-02-02T23:41:08.445Z,2.40
2023-02-02T23:43:36.308Z,2.40
2023-02-02T23:46:03.657Z,2.40
2023-02-02T23:48:31.257Z,2.40
2023-02-02T23:50:59.792Z,2.40
2023-02-02T23:53:27.240Z,2.40
2023-02-02T23:55:55.005Z,2.40
2023-02-02T23:58:22.153Z,2.30
